Time;durP1;ratioP1;P1;durP2;ratioP2;P2;SDS_P1;SDS_P2;PMS_P1;PMS_P2;Temp;Humidity;BMP_temperature;BMP_pressure;BME280_temperature;BME280_humidity;BME280_pressure;Samples;Min_cycle;Max_cycle;Signal;HPM_P1;HPM_P2
2024/02/04 00:02:25;;;;;;;;;;;;;;;;;;5093939;28;19969;-85
2024/02/04 00:04:53;;;;;;;;;;;;;;;;;;5087413;28;19916;-84
2024/02/04 00:07:19;;;;;;;;;;;;;;;;;;5089025;28;20325;-85
2024/02/04 00:09:45;;;;;;;;;;;;;;;;;;5090174;28;19923;-85
2024/02/04 00:12:11;;;;;;;;;;;;;;;;;;5087599;28;20543;-85
2024/02/04 00:14:37;;;;;;;;;;;;;;;;;;5072343;28;20006;-85
2024/02/04 00:17:02;;;;;;;;;;;;;;;;;;5092860;28;20002;-85
2024/02/04 00:19:28;;;;;;;;;;;;;;;;;;5093688;28;19978;-84
2024/02/04 00:21:54;;;;;;;;;;;;;;;;;;5091914;28;19916;-85
2024/02/04 00:24:20;;;;;;;;;;;;;;;;;;5087043;28;19969;-84
2024/02/04 00:26:46;;;;;;;;;;;;;;;;;;5093246;28;19920;-85
2024/02/04 00:29:12;;;;;;;;;;;;;;;;;;5088162;28;20932;-84
2024/02/04 00:31:38;;;;;;;;;;;;;;;;;;5091833;28;19912;-84
2024/02/04 00:34:05;;;;;;;;;;;;;;;;;;5072425;28;19920;-84
2024/02/04 00:36:30;;;;;;;;;;;;;;;;;;5091532;28;19912;-85
2024/02/04 00:38:56;;;;;;;;;;;;;;;;;;5091706;28;20007;-85
2024/02/04 00:41:22;;;;;;;;;;;;;;;;;;5089786;28;19915;-87
2024/02/04 00:43:48;;;;;;;;;;;;;;;;;;5090511;28;19917;-85
2024/02/04 00:46:14;;;;;;;;;;;;;;;;;;5091360;28;19912;-86
2024/02/04 00:48:43;;;;;;;;;;;;;;;;;;5091514;28;19912;-84
2024/02/04 00:51:09;;;;;;;;;;;;;;;;;;5096425;28;20002;-85
2024/02/04 00:53:35;;;;;;;;;;;;;;;;;;5095754;28;20017;-85
2024/02/04 00:56:00;;;;;;;;;;;;;;;;;;5094387;28;19919;-86
2024/02/04 00:58:26;;;;;;;;;;;;;;;;;;5087174;28;20393;-85
2024/02/04 01:00:52;;;;;;;;;;;;;;;;;;5089508;28;20384;-84
2024/02/04 01:03:18;;;;;;;;;;;;;;;;;;5097003;28;20274;-85
2024/02/04 01:05:44;;;;;;;;;;;;;;;;;;5090291;28;20022;-85
2024/02/04 01:08:10;;;;;;;;;;;;;;;;;;5097312;28;19916;-85
2024/02/04 01:10:36;;;;;;;;;;;;;;;;;;5093541;28;19916;-84
2024/02/04 01:13:01;;;;;;;;;;;;;;;;;;5091771;28;20381;-84
2024/02/04 01:15:27;;;;;;;;;;;;;;;;;;5071206;28;20352;-85
2024/02/04 01:17:53;;;;;;;;;;;;;;;;;;5102642;28;20480;-84
2024/02/04 01:20:19;;;;;;;;;;;;;;;;;;5088341;28;20083;-84
2024/02/04 01:22:45;;;;;;;;;;;;;;;;;;5088472;28;19912;-84
2024/02/04 01:25:11;;;;;;;;;;;;;;;;;;5091873;28;20041;-85
2024/02/04 01:27:36;;;;;;;;;;;;;;;;;;5090230;28;19916;-85
2024/02/04 01:30:02;;;;;;;;;;;;;;;;;;5090242;28;19944;-84
2024/02/04 01:32:28;;;;;;;;;;;;;;;;;;5089919;28;19999;-86
2024/02/04 01:34:54;;;;;;;;;;;;;;;;;;5098341;28;19990;-85
2024/02/04 01:37:20;;;;;;;;;;;;;;;;;;5099168;28;19920;-85
2024/02/04 01:39:46;;;;;;;;;;;;;;;;;;5090052;28;19918;-85
2024/02/04 01:42:12;;;;;;;;;;;;;;;;;;5094472;28;19915;-85
2024/02/04 01:44:37;;;;;;;;;;;;;;;;;;5102695;28;19907;-85
2024/02/04 01:47:03;;;;;;;;;;;;;;;;;;5070641;28;19912;-85
2024/02/04 01:49:29;;;;;;;;;;;;;;;;;;5086530;28;20255;-85
2024/02/04 01:51:56;;;;;;;;;;;;;;;;;;5089737;28;19999;-85
2024/02/04 01:54:22;;;;;;;;;;;;;;;;;;5097542;28;19964;-85
2024/02/04 01:56:48;;;;;;;;;;;;;;;;;;5088556;28;20015;-86
2024/02/04 01:59:14;;;;;;;;;;;;;;;;;;5088758;28;20502;-86
2024/02/04 02:01:40;;;;;;;;;;;;;;;;;;5085128;28;19985;-85
2024/02/04 02:04:05;;;;;;;;;;;;;;;;;;5090211;28;20007;-85
2024/02/04 02:06:31;;;;;;;;;;;;;;;;;;5089192;28;19912;-84
2024/02/04 02:08:57;;;;;;;;;;;;;;;;;;5072226;28;19916;-85
2024/02/04 02:11:23;;;;;;;;;;;;;;;;;;5084555;28;19919;-84
2024/02/04 02:13:49;;;;;;;;;;;;;;;;;;5084027;28;20468;-84
2024/02/04 02:16:16;;;;;;;;;;;;;;;;;;5087802;28;20370;-85
2024/02/04 02:18:42;;;;;;;;;;;;;;;;;;5089052;28;19919;-84
2024/02/04 02:21:08;;;;;;;;;;;;;;;;;;5089548;28;19916;-85
2024/02/04 02:23:34;;;;;;;;;;;;;;;;;;5086858;28;20007;-84
2024/02/04 02:26:00;;;;;;;;;;;;;;;;;;5090522;28;20509;-86
2024/02/04 02:28:25;;;;;;;;;;;;;;;;;;5088281;28;20372;-85
2024/02/04 02:30:51;;;;;;;;;;;;;;;;;;5086607;28;20058;-85
2024/02/04 02:33:17;;;;;;;;;;;;;;;;;;5088088;28;19912;-85
2024/02/04 02:35:43;;;;;;;;;;;;;;;;;;5090329;28;19919;-85
2024/02/04 02:38:09;;;;;;;;;;;;;;;;;;5092416;28;20007;-85
2024/02/04 02:40:35;;;;;;;;;;;;;;;;;;5087832;28;19927;-84
2024/02/04 02:43:01;;;;;;;;;;;;;;;;;;5074161;28;19912;-85
2024/02/04 02:45:27;;;;;;;;;;;;;;;;;;5087718;28;19912;-85
2024/02/04 02:47:53;;;;;;;;;;;;;;;;;;5079575;28;20498;-84
2024/02/04 02:50:18;;;;;;;;;;;;;;;;;;5087859;28;19974;-85
2024/02/04 02:52:44;;;;;;;;;;;;;;;;;;5091010;28;19919;-85
2024/02/04 02:55:10;;;;;;;;;;;;;;;;;;5086600;28;19912;-85
2024/02/04 02:57:36;;;;;;;;;;;;;;;;;;5092727;28;19925;-84
2024/02/04 03:00:03;;;;;;;;;;;;;;;;;;5086153;28;19939;-85
2024/02/04 03:02:29;;;;;;;;;;;;;;;;;;5088196;28;20014;-84
2024/02/04 03:04:55;;;;;;;;;;;;;;;;;;5089504;28;20016;-85
2024/02/04 03:07:21;;;;;;;;;;;;;;;;;;5094344;28;19912;-84
2024/02/04 03:09:47;;;;;;;;;;;;;;;;;;5088794;28;20384;-84
2024/02/04 03:12:13;;;;;;;;;;;;;;;;;;5087744;28;19957;-85
2024/02/04 03:14:39;;;;;;;;;;;;;;;;;;5082759;28;19916;-84
2024/02/04 03:17:05;;;;;;;;;;;;;;;;;;5087600;28;19951;-85
2024/02/04 03:19:30;;;;;;;;;;;;;;;;;;5084764;28;19919;-85
2024/02/04 03:21:56;;;;;;;;;;;;;;;;;;5089285;28;20358;-85
2024/02/04 03:24:22;;;;;;;;;;;;;;;;;;5097896;28;20281;-85
2024/02/04 03:26:48;;;;;;;;;;;;;;;;;;5090937;28;19912;-86
2024/02/04 03:29:14;;;;;;;;;;;;;;;;;;5091299;28;19912;-86
2024/02/04 03:31:39;;;;;;;;;;;;;;;;;;5086810;28;19912;-85
2024/02/04 03:34:05;;;;;;;;;;;;;;;;;;5085384;28;19919;-85
2024/02/04 03:36:32;;;;;;;;;;;;;;;;;;5085669;28;19951;-85
2024/02/04 03:38:57;;;;;;;;;;;;;;;;;;5068847;28;19924;-85
2024/02/04 03:41:23;;;;;;;;;;;;;;;;;;5088101;28;19919;-84
2024/02/04 03:43:49;;;;;;;;;;;;;;;;;;5083234;28;20003;-85
2024/02/04 03:46:15;;;;;;;;;;;;;;;;;;5078355;28;19912;-84
2024/02/04 03:48:41;;;;;;;;;;;;;;;;;;5085395;28;19919;-85
2024/02/04 03:51:07;;;;;;;;;;;;;;;;;;5080301;28;19907;-86
2024/02/04 03:53:32;;;;;;;;;;;;;;;;;;5095329;28;19926;-85
2024/02/04 03:55:58;;;;;;;;;;;;;;;;;;5085441;28;20001;-84
2024/02/04 03:58:29;;;;;;;;;;;;;;;;;;5091628;28;19912;-84
2024/02/04 04:00:55;;;;;;;;;;;;;;;;;;5086129;28;19931;-85
2024/02/04 04:03:21;;;;;;;;;;;;;;;;;;5091350;28;19923;-85
2024/02/04 04:05:46;;;;;;;;;;;;;;;;;;5081028;28;19913;-85
2024/02/04 04:08:12;;;;;;;;;;;;;;;;;;5093274;28;19920;-84
2024/02/04 04:10:38;;;;;;;;;;;;;;;;;;5096444;28;19916;-85
2024/02/04 04:13:04;;;;;;;;;;;;;;;;;;5087368;28;19919;-85
2024/02/04 04:15:30;;;;;;;;;;;;;;;;;;5086512;28;20025;-85
2024/02/04 04:17:56;;;;;;;;;;;;;;;;;;5090046;28;20227;-85
2024/02/04 04:20:21;;;;;;;;;;;;;;;;;;5087186;28;20357;-85
2024/02/04 04:22:47;;;;;;;;;;;;;;;;;;5081871;28;19921;-85
2024/02/04 04:25:13;;;;;;;;;;;;;;;;;;5068419;28;19912;-85
2024/02/04 04:27:39;;;;;;;;;;;;;;;;;;5088061;28;19962;-86
2024/02/04 04:30:08;;;;;;;;;;;;;;;;;;5067314;28;19955;-84
2024/02/04 04:32:34;;;;;;;;;;;;;;;;;;5078589;28;19923;-85
2024/02/04 04:35:00;;;;;;;;;;;;;;;;;;5091239;28;20281;-85
2024/02/04 04:37:26;;;;;;;;;;;;;;;;;;5070163;28;19912;-85
2024/02/04 04:39:52;;;;;;;;;;;;;;;;;;5087503;28;19976;-84
2024/02/04 04:42:18;;;;;;;;;;;;;;;;;;5086066;28;19920;-85
2024/02/04 04:44:43;;;;;;;;;;;;;;;;;;5076601;28;19916;-85
2024/02/04 04:47:09;;;;;;;;;;;;;;;;;;5086458;28;19920;-84
2024/02/04 04:49:35;;;;;;;;;;;;;;;;;;5083917;28;20464;-85
2024/02/04 04:52:01;;;;;;;;;;;;;;;;;;5086120;28;20368;-86
2024/02/04 04:54:27;;;;;;;;;;;;;;;;;;5067546;28;19988;-85
2024/02/04 04:56:53;;;;;;;;;;;;;;;;;;5083089;28;20073;-85
2024/02/04 04:59:18;;;;;;;;;;;;;;;;;;5089314;28;19928;-86
2024/02/04 05:01:44;;;;;;;;;;;;;;;;;;5095201;28;19912;-84
2024/02/04 05:04:10;;;;;;;;;;;;;;;;;;5088706;28;19962;-86
2024/02/04 05:06:36;;;;;;;;;;;;;;;;;;5089716;28;19916;-85
2024/02/04 05:09:02;;;;;;;;;;;;;;;;;;5077569;28;19931;-87
2024/02/04 05:11:28;;;;;;;;;;;;;;;;;;5095224;28;20009;-86
2024/02/04 05:13:54;;;;;;;;;;;;;;;;;;5089905;28;19916;-83
2024/02/04 05:16:20;;;;;;;;;;;;;;;;;;5089099;28;19999;-84
2024/02/04 05:18:46;;;;;;;;;;;;;;;;;;5094550;28;20365;-83
2024/02/04 05:21:11;;;;;;;;;;;;;;;;;;5081442;28;20362;-83
2024/02/04 05:23:37;;;;;;;;;;;;;;;;;;5091650;28;20366;-84
2024/02/04 05:26:04;;;;;;;;;;;;;;;;;;5090777;28;19916;-83
2024/02/04 05:28:29;;;;;;;;;;;;;;;;;;5077535;28;20480;-85
2024/02/04 05:30:55;;;;;;;;;;;;;;;;;;5089919;28;19927;-87
2024/02/04 05:33:21;;;;;;;;;;;;;;;;;;5082657;28;20366;-85
2024/02/04 05:35:47;;;;;;;;;;;;;;;;;;5090693;28;20329;-84
2024/02/04 05:38:13;;;;;;;;;;;;;;;;;;5090797;28;20294;-89
2024/02/04 05:40:39;;;;;;;;;;;;;;;;;;5089899;28;20015;-86
2024/02/04 05:43:07;;;;;;;;;;;;;;;;;;5069645;28;19955;-87
2024/02/04 05:45:33;;;;;;;;;;;;;;;;;;5085921;28;19912;-88
2024/02/04 05:47:58;;;;;;;;;;;;;;;;;;5083828;28;20394;-86
2024/02/04 05:50:24;;;;;;;;;;;;;;;;;;5091744;28;19916;-85
2024/02/04 05:52:50;;;;;;;;;;;;;;;;;;5091729;28;19916;-86
2024/02/04 05:55:16;;;;;;;;;;;;;;;;;;5089096;28;20453;-84
2024/02/04 05:57:42;;;;;;;;;;;;;;;;;;5081679;28;20301;-85
2024/02/04 06:00:08;;;;;;;;;;;;;;;;;;5089301;28;19946;-86
2024/02/04 06:02:34;;;;;;;;;;;;;;;;;;5086501;28;19916;-86
2024/02/04 06:05:00;;;;;;;;;;;;;;;;;;5078673;28;19919;-85
2024/02/04 06:07:26;;;;;;;;;;;;;;;;;;5080182;28;19920;-85
2024/02/04 06:09:52;;;;;;;;;;;;;;;;;;5077665;28;19923;-87
2024/02/04 06:12:18;;;;;;;;;;;;;;;;;;5077384;28;20407;-86
2024/02/04 06:14:44;;;;;;;;;;;;;;;;;;5090053;28;20259;-84
2024/02/04 06:17:10;;;;;;;;;;;;;;;;;;5084940;28;19960;-84
2024/02/04 06:19:36;;;;;;;;;;;;;;;;;;5080830;28;19916;-83
2024/02/04 06:22:01;;;;;;;;;;;;;;;;;;5078538;28;19917;-84
2024/02/04 06:24:27;;;;;;;;;;;;;;;;;;5088014;28;19916;-85
2024/02/04 06:26:53;;;;;;;;;;;;;;;;;;5087009;28;19912;-85
2024/02/04 06:29:19;;;;;;;;;;;;;;;;;;5088998;28;20378;-83
2024/02/04 06:31:45;;;;;;;;;;;;;;;;;;5090934;28;20312;-86
2024/02/04 06:34:11;;;;;;;;;;;;;;;;;;5090663;28;19915;-86
2024/02/04 06:36:37;;;;;;;;;;;;;;;;;;5089768;28;19912;-84
2024/02/04 06:39:03;;;;;;;;;;;;;;;;;;5066536;28;20021;-86
2024/02/04 06:41:28;;;;;;;;;;;;;;;;;;5078996;28;19928;-83
2024/02/04 06:43:54;;;;;;;;;;;;;;;;;;5089099;28;20395;-84
2024/02/04 06:46:20;;;;;;;;;;;;;;;;;;5097404;28;19916;-85
2024/02/04 06:48:46;;;;;;;;;;;;;;;;;;5104061;28;19908;-83
2024/02/04 06:51:12;;;;;;;;;;;;;;;;;;5093088;28;20282;-88
2024/02/04 06:53:38;;;;;;;;;;;;;;;;;;5117530;28;19908;-84
2024/02/04 06:56:04;;;;;;;;;;;;;;;;;;5089899;28;19920;-85
2024/02/04 06:58:29;;;;;;;;;;;;;;;;;;5089419;28;20007;-85
2024/02/04 07:00:55;;;;;;;;;;;;;;;;;;5088449;28;19920;-85
2024/02/04 07:03:21;;;;;;;;;;;;;;;;;;5069939;28;19912;-84
2024/02/04 07:05:47;;;;;;;;;;;;;;;;;;5093416;28;20301;-85
2024/02/04 07:08:13;;;;;;;;;;;;;;;;;;5089909;28;19911;-84
2024/02/04 07:10:39;;;;;;;;;;;;;;;;;;5093276;28;20007;-84
2024/02/04 07:13:06;;;;;;;;;;;;;;;;;;5099640;28;20338;-85
2024/02/04 07:15:31;;;;;;;;;;;;;;;;;;5096106;28;19958;-85
2024/02/04 07:17:57;;;;;;;;;;;;;;;;;;5089054;28;19947;-86
2024/02/04 07:20:23;;;;;;;;;;;;;;;;;;5097508;28;19920;-85
2024/02/04 07:22:49;;;;;;;;;;;;;;;;;;5089532;28;19920;-85
2024/02/04 07:25:15;;;;;;;;;;;;;;;;;;5088352;28;19912;-86
2024/02/04 07:27:41;;;;;;;;;;;;;;;;;;5089346;28;20005;-85
2024/02/04 07:30:07;;;;;;;;;;;;;;;;;;5094602;28;20400;-85
2024/02/04 07:32:34;;;;;;;;;;;;;;;;;;5093884;28;19917;-85
2024/02/04 07:35:00;;;;;;;;;;;;;;;;;;5091399;28;20294;-86
2024/02/04 07:37:26;;;;;;;;;;;;;;;;;;5088571;28;19912;-86
2024/02/04 07:39:52;;;;;;;;;;;;;;;;;;5087041;28;20014;-88
2024/02/04 07:42:18;;;;;;;;;;;;;;;;;;5106145;28;19916;-89
2024/02/04 07:44:44;;;;;;;;;;;;;;;;;;5092277;28;20266;-85
2024/02/04 07:47:09;;;;;;;;;;;;;;;;;;5085548;28;20269;-86
2024/02/04 07:49:35;;;;;;;;;;;;;;;;;;5084919;28;19955;-86
2024/02/04 07:52:01;;;;;;;;;;;;;;;;;;5088082;28;19923;-87
2024/02/04 07:54:27;;;;;;;;;;;;;;;;;;5085273;28;19923;-85
2024/02/04 07:56:53;;;;;;;;;;;;;;;;;;5086483;28;19999;-86
2024/02/04 07:59:19;;;;;;;;;;;;;;;;;;5078392;28;19924;-85
2024/02/04 08:01:45;;;;;;;;;;;;;;;;;;5092911;28;20460;-86
2024/02/04 08:04:10;;;;;;;;;;;;;;;;;;5090732;28;19939;-86
2024/02/04 08:06:37;;;;;;;;;;;;;;;;;;5099080;28;19948;-92
2024/02/04 08:09:03;;;;;;;;;;;;;;;;;;5097741;28;19965;-91
2024/02/04 08:11:29;;;;;;;;;;;;;;;;;;5078625;28;19912;-91
2024/02/04 08:13:55;;;;;;;;;;;;;;;;;;5097069;28;19920;-91
2024/02/04 08:16:21;;;;;;;;;;;;;;;;;;5090641;28;20028;-87
2024/02/04 08:18:46;;;;;;;;;;;;;;;;;;5088159;28;19912;-89
2024/02/04 08:21:12;;;;;;;;;;;;;;;;;;5098725;28;19916;-89
2024/02/04 08:23:41;;;;;;;;;;;;;;;;;;5098774;28;19919;-90
2024/02/04 08:26:07;;;;;;;;;;;;;;;;;;5088501;28;19947;-91
2024/02/04 08:31:18;;;;;;;;;;;;;;;;;;5105009;28;19923;-88
2024/02/04 08:33:43;;;;;;;;;;;;;;;;;;5103435;28;19916;-90
2024/02/04 08:36:12;;;;;;;;;;;;;;;;;;5075972;28;20354;-90
2024/02/04 08:38:46;;;;;;;;;;;;;;;;;;5099064;28;19912;-89
2024/02/04 08:41:11;;;;;;;;;;;;;;;;;;5090278;28;19944;-88
2024/02/04 08:43:37;;;;;;;;;;;;;;;;;;5099360;28;19984;-88
2024/02/04 08:46:03;;;;;;;;;;;;;;;;;;5099038;28;20275;-89
2024/02/04 08:48:29;;;;;;;;;;;;;;;;;;5112516;28;19986;-92
2024/02/04 08:50:55;;;;;;;;;;;;;;;;;;5096957;28;19962;-85
2024/02/04 08:53:21;;;;;;;;;;;;;;;;;;5096051;28;19912;-86
2024/02/04 08:55:47;;;;;;;;;;;;;;;;;;5094317;28;19934;-87
2024/02/04 08:58:15;;;;;;;;;;;;;;;;;;5084849;28;19916;-87
2024/02/04 09:00:41;;;;;;;;;;;;;;;;;;5187476;22;19917;-88
2024/02/04 09:03:07;;;;;;;;;;;;;;;;;;5094556;28;19921;-89
2024/02/04 09:05:33;;;;;;;;;;;;;;;;;;5097305;28;20211;-90
2024/02/04 09:08:01;;;;;;;;;;;;;;;;;;5095918;28;19896;-90
2024/02/04 09:13:18;;;;;;;;;;;;;;;;;;5291615;22;19958;-87
2024/02/04 09:15:44;;;;;;;;;;;;;;;;;;5114999;28;19916;-89
2024/02/04 09:20:47;;;;;;;;;;;;;;;;;;5633308;22;19924;-90
2024/02/04 09:23:13;;;;;;;;;;;;;;;;;;5844829;22;20539;-88
2024/02/04 09:25:39;;;;;;;;;;;;;;;;;;5137466;22;19930;-88
2024/02/04 09:30:52;;;;;;;;;;;;;;;;;;5350597;22;19928;-88
2024/02/04 09:38:36;;;;;;;;;;;;;;;;;;5999887;22;20841;-87
2024/02/04 09:41:05;;;;;;;;;;;;;;;;;;5116956;28;19926;-89
2024/02/04 09:43:31;;;;;;;;;;;;;;;;;;5110603;28;20009;-89
2024/02/04 09:45:56;;;;;;;;;;;;;;;;;;5115551;28;19908;-88
2024/02/04 09:48:25;;;;;;;;;;;;;;;;;;5112661;28;20007;-88
2024/02/04 09:53:26;;;;;;;;;;;;;;;;;;5349453;22;19972;-87
2024/02/04 09:55:52;;;;;;;;;;;;;;;;;;5124267;28;19924;-88
2024/02/04 09:58:18;;;;;;;;;;;;;;;;;;5158782;22;19924;-89
2024/02/04 10:00:45;;;;;;;;;;;;;;;;;;5112170;28;19907;-88
2024/02/04 10:03:13;;;;;;;;;;;;;;;;;;5124961;28;19892;-89
2024/02/04 10:05:41;;;;;;;;;;;;;;;;;;5358739;22;19908;-89
2024/02/04 10:08:07;;;;;;;;;;;;;;;;;;5113651;28;19912;-88
2024/02/04 10:10:33;;;;;;;;;;;;;;;;;;5107195;28;20377;-88
2024/02/04 10:18:10;;;;;;;;;;;;;;;;;;5511234;22;19976;-88
2024/02/04 10:20:36;;;;;;;;;;;;;;;;;;5105524;28;19915;-89
2024/02/04 10:23:02;;;;;;;;;;;;;;;;;;5113317;28;19951;-89
2024/02/04 10:25:28;;;;;;;;;;;;;;;;;;5106661;28;20464;-89
2024/02/04 10:27:54;;;;;;;;;;;;;;;;;;5331937;22;19935;-87
2024/02/04 10:30:21;;;;;;;;;;;;;;;;;;5112621;28;19916;-88
2024/02/04 10:32:48;;;;;;;;;;;;;;;;;;5111601;28;19930;-92
2024/02/04 10:35:14;;;;;;;;;;;;;;;;;;5108303;28;20025;-93
2024/02/04 10:37:39;;;;;;;;;;;;;;;;;;5108549;28;20367;-88
2024/02/04 10:40:08;;;;;;;;;;;;;;;;;;5110554;28;19908;-90
2024/02/04 10:42:34;;;;;;;;;;;;;;;;;;5108078;28;19916;-90
2024/02/04 10:45:02;;;;;;;;;;;;;;;;;;5099424;28;19913;-91
2024/02/04 10:47:28;;;;;;;;;;;;;;;;;;5090754;28;20607;-86
2024/02/04 10:49:54;;;;;;;;;;;;;;;;;;5100080;28;19912;-89
2024/02/04 10:52:20;;;;;;;;;;;;;;;;;;5125244;22;19908;-90
2024/02/04 10:54:47;;;;;;;;;;;;;;;;;;5097922;28;19950;-90
2024/02/04 10:57:16;;;;;;;;;;;;;;;;;;5106478;28;19930;-91
2024/02/04 11:02:18;;;;;;;;;;;;;;;;;;5257173;22;20014;-92
2024/02/04 11:04:44;;;;;;;;;;;;;;;;;;5086873;28;19912;-90
2024/02/04 11:07:10;;;;;;;;;;;;;;;;;;5136529;22;19924;-90
2024/02/04 11:09:35;;;;;;;;;;;;;;;;;;5103573;28;19916;-88
2024/02/04 11:17:13;;;;;;;;;;;;;;;;;;5063777;28;21760;-88
2024/02/04 11:19:39;;;;;;;;;;;;;;;;;;5094249;28;19912;-90
2024/02/04 11:22:06;;;;;;;;;;;;;;;;;;5089318;28;19909;-87
2024/02/04 11:24:33;;;;;;;;;;;;;;;;;;5075793;28;19908;-89
2024/02/04 11:32:12;;;;;;;;;;;;;;;;;;6060191;22;19939;-88
2024/02/04 11:34:38;;;;;;;;;;;;;;;;;;5112082;28;19912;-90
2024/02/04 11:37:04;;;;;;;;;;;;;;;;;;5116446;28;19919;-88
2024/02/04 11:39:29;;;;;;;;;;;;;;;;;;5127326;28;19975;-89
2024/02/04 11:41:55;;;;;;;;;;;;;;;;;;5078507;28;19923;-91
2024/02/04 11:44:24;;;;;;;;;;;;;;;;;;5107213;28;19913;-89
2024/02/04 11:49:26;;;;;;;;;;;;;;;;;;5810936;22;19908;-88
2024/02/04 11:51:52;;;;;;;;;;;;;;;;;;5111564;28;19912;-87
2024/02/04 11:54:19;;;;;;;;;;;;;;;;;;5110375;28;19991;-89
2024/02/04 11:56:46;;;;;;;;;;;;;;;;;;5104196;28;19909;-90
2024/02/04 11:59:14;;;;;;;;;;;;;;;;;;5106352;28;19965;-90
2024/02/04 12:01:40;;;;;;;;;;;;;;;;;;5107578;28;19908;-89
2024/02/04 12:04:06;;;;;;;;;;;;;;;;;;5092716;28;19975;-88
2024/02/04 12:06:32;;;;;;;;;;;;;;;;;;5108808;28;19912;-90
2024/02/04 12:08:59;;;;;;;;;;;;;;;;;;5110155;28;20468;-88
2024/02/04 12:11:25;;;;;;;;;;;;;;;;;;5117014;28;19939;-88
2024/02/04 12:13:53;;;;;;;;;;;;;;;;;;5168300;22;19991;-89
2024/02/04 12:16:19;;;;;;;;;;;;;;;;;;5117263;28;19928;-87
2024/02/04 12:18:47;;;;;;;;;;;;;;;;;;5110425;28;20136;-90
2024/02/04 12:21:13;;;;;;;;;;;;;;;;;;5111737;28;19915;-90
2024/02/04 12:23:42;;;;;;;;;;;;;;;;;;5114768;28;19924;-90
2024/02/04 12:26:08;;;;;;;;;;;;;;;;;;5112622;28;19947;-90
2024/02/04 12:28:34;;;;;;;;;;;;;;;;;;5116343;28;19916;-90
2024/02/04 12:31:00;;;;;;;;;;;;;;;;;;5116446;28;19989;-89
2024/02/04 12:33:26;;;;;;;;;;;;;;;;;;5106635;28;19896;-89
2024/02/04 12:35:55;;;;;;;;;;;;;;;;;;5093978;28;19934;-89
2024/02/04 12:38:27;;;;;;;;;;;;;;;;;;5149501;22;20023;-88
2024/02/04 12:40:52;;;;;;;;;;;;;;;;;;5072317;28;19924;-88
2024/02/04 12:43:18;;;;;;;;;;;;;;;;;;5074823;28;19913;-90
2024/02/04 12:45:44;;;;;;;;;;;;;;;;;;5072069;28;19929;-90
2024/02/04 12:48:10;;;;;;;;;;;;;;;;;;5067643;28;19909;-90
2024/02/04 12:50:36;;;;;;;;;;;;;;;;;;5066008;28;19920;-88
2024/02/04 12:53:02;;;;;;;;;;;;;;;;;;5049264;28;19908;-90
2024/02/04 12:55:28;;;;;;;;;;;;;;;;;;5066892;28;19921;-87
2024/02/04 12:57:57;;;;;;;;;;;;;;;;;;5047703;28;19912;-89
2024/02/04 13:00:23;;;;;;;;;;;;;;;;;;5067856;28;19913;-89
2024/02/04 13:02:49;;;;;;;;;;;;;;;;;;5067411;28;20043;-89
2024/02/04 13:05:14;;;;;;;;;;;;;;;;;;5070444;28;19917;-90
2024/02/04 13:07:43;;;;;;;;;;;;;;;;;;5070127;28;19913;-91
2024/02/04 13:10:09;;;;;;;;;;;;;;;;;;5066623;28;19923;-89
2024/02/04 13:12:39;;;;;;;;;;;;;;;;;;5061197;28;20003;-88
2024/02/04 13:15:05;;;;;;;;;;;;;;;;;;5049059;28;19956;-88
2024/02/04 13:17:31;;;;;;;;;;;;;;;;;;5053703;28;19913;-88
2024/02/04 13:19:57;;;;;;;;;;;;;;;;;;5053268;28;19913;-86
2024/02/04 13:22:22;;;;;;;;;;;;;;;;;;5053425;28;19921;-88
2024/02/04 13:24:48;;;;;;;;;;;;;;;;;;5043632;28;20438;-89
2024/02/04 13:27:14;;;;;;;;;;;;;;;;;;5051649;28;19913;-89
2024/02/04 13:29:40;;;;;;;;;;;;;;;;;;5051647;28;19959;-85
2024/02/04 13:32:06;;;;;;;;;;;;;;;;;;5051102;28;19924;-86
2024/02/04 13:34:32;;;;;;;;;;;;;;;;;;5044630;28;20666;-85
2024/02/04 13:36:58;;;;;;;;;;;;;;;;;;5046601;28;19917;-86
2024/02/04 13:39:24;;;;;;;;;;;;;;;;;;5048948;28;19955;-87
2024/02/04 13:41:50;;;;;;;;;;;;;;;;;;5045703;28;19964;-85
2024/02/04 13:44:15;;;;;;;;;;;;;;;;;;5048974;28;20047;-87
2024/02/04 13:46:42;;;;;;;;;;;;;;;;;;5049308;28;19912;-90
2024/02/04 13:49:08;;;;;;;;;;;;;;;;;;5048885;28;19916;-88
2024/02/04 13:51:36;;;;;;;;;;;;;;;;;;5051966;28;19917;-87
2024/02/04 13:54:01;;;;;;;;;;;;;;;;;;5050503;28;19917;-85
2024/02/04 13:56:29;;;;;;;;;;;;;;;;;;5047891;28;20446;-82
2024/02/04 13:58:55;;;;;;;;;;;;;;;;;;5051444;28;20384;-83
2024/02/04 14:01:22;;;;;;;;;;;;;;;;;;5042458;28;20014;-81
2024/02/04 14:03:50;;;;;;;;;;;;;;;;;;5047339;28;19917;-90
2024/02/04 14:06:15;;;;;;;;;;;;;;;;;;5046218;28;20359;-90
2024/02/04 14:08:41;;;;;;;;;;;;;;;;;;5037075;28;19966;-85
2024/02/04 14:11:07;;;;;;;;;;;;;;;;;;5044039;28;20739;-83
2024/02/04 14:13:34;;;;;;;;;;;;;;;;;;5041636;28;19913;-85
2024/02/04 14:16:00;;;;;;;;;;;;;;;;;;5038865;28;20319;-86
2024/02/04 14:18:26;;;;;;;;;;;;;;;;;;5048175;28;19947;-83
2024/02/04 14:20:52;;;;;;;;;;;;;;;;;;5043458;28;19955;-84
2024/02/04 14:23:18;;;;;;;;;;;;;;;;;;5038938;28;19936;-84
2024/02/04 14:25:45;;;;;;;;;;;;;;;;;;5048685;28;19912;-83
2024/02/04 14:28:11;;;;;;;;;;;;;;;;;;5051189;28;19921;-83
2024/02/04 14:30:37;;;;;;;;;;;;;;;;;;5046998;28;19981;-85
2024/02/04 14:33:03;;;;;;;;;;;;;;;;;;5035630;28;19928;-83
2024/02/04 14:35:29;;;;;;;;;;;;;;;;;;5047359;28;19924;-82
2024/02/04 14:37:55;;;;;;;;;;;;;;;;;;5046642;28;19966;-82
2024/02/04 14:40:20;;;;;;;;;;;;;;;;;;5045296;28;19920;-82
2024/02/04 14:42:46;;;;;;;;;;;;;;;;;;5043470;28;19920;-82
2024/02/04 14:45:12;;;;;;;;;;;;;;;;;;5041794;28;19913;-83
2024/02/04 14:47:38;;;;;;;;;;;;;;;;;;5040482;28;19967;-81
2024/02/04 14:50:04;;;;;;;;;;;;;;;;;;5045640;28;19952;-82
2024/02/04 14:52:30;;;;;;;;;;;;;;;;;;5043423;28;19940;-81
2024/02/04 14:54:56;;;;;;;;;;;;;;;;;;5044323;28;19913;-82
2024/02/04 14:57:21;;;;;;;;;;;;;;;;;;5042891;28;19919;-82
2024/02/04 14:59:47;;;;;;;;;;;;;;;;;;5046437;28;19920;-82
2024/02/04 15:02:13;;;;;;;;;;;;;;;;;;5038024;28;20374;-81
2024/02/04 15:04:39;;;;;;;;;;;;;;;;;;5017422;28;19913;-81
2024/02/04 15:07:06;;;;;;;;;;;;;;;;;;5042744;28;20288;-81
2024/02/04 15:09:32;;;;;;;;;;;;;;;;;;5042354;28;19917;-82
2024/02/04 15:11:58;;;;;;;;;;;;;;;;;;5028921;28;20386;-86
2024/02/04 15:14:24;;;;;;;;;;;;;;;;;;5049320;28;19913;-82
2024/02/04 15:16:50;;;;;;;;;;;;;;;;;;5046424;28;20326;-82
2024/02/04 15:19:16;;;;;;;;;;;;;;;;;;5042849;28;19917;-82
2024/02/04 15:21:42;;;;;;;;;;;;;;;;;;5042239;28;19923;-82
2024/02/04 15:24:08;;;;;;;;;;;;;;;;;;5044969;28;19916;-82
2024/02/04 15:26:34;;;;;;;;;;;;;;;;;;5040628;28;19917;-82
2024/02/04 15:29:00;;;;;;;;;;;;;;;;;;5035169;28;20011;-82
2024/02/04 15:31:27;;;;;;;;;;;;;;;;;;5037113;28;19952;-82
2024/02/04 15:33:53;;;;;;;;;;;;;;;;;;5041030;28;19920;-82
2024/02/04 15:36:19;;;;;;;;;;;;;;;;;;5045408;28;19916;-82
2024/02/04 15:38:45;;;;;;;;;;;;;;;;;;5046175;28;20000;-82
2024/02/04 15:41:11;;;;;;;;;;;;;;;;;;5046472;28;19990;-81
2024/02/04 15:43:37;;;;;;;;;;;;;;;;;;5045077;28;20341;-82
2024/02/04 15:46:03;;;;;;;;;;;;;;;;;;5043472;28;19913;-82
2024/02/04 15:48:30;;;;;;;;;;;;;;;;;;5045978;28;20291;-82
2024/02/04 15:50:56;;;;;;;;;;;;;;;;;;5038202;28;20023;-82
2024/02/04 15:53:22;;;;;;;;;;;;;;;;;;5039504;28;20217;-82
2024/02/04 15:55:47;;;;;;;;;;;;;;;;;;5045109;28;19913;-82
2024/02/04 15:58:13;;;;;;;;;;;;;;;;;;5044288;28;20003;-82
2024/02/04 16:00:39;;;;;;;;;;;;;;;;;;5045130;28;20303;-81
2024/02/04 16:03:05;;;;;;;;;;;;;;;;;;5048144;28;20310;-82
2024/02/04 16:05:31;;;;;;;;;;;;;;;;;;5043290;28;19921;-81
2024/02/04 16:07:57;;;;;;;;;;;;;;;;;;5039625;28;19923;-82
2024/02/04 16:10:23;;;;;;;;;;;;;;;;;;5030701;28;19956;-82
2024/02/04 16:12:49;;;;;;;;;;;;;;;;;;5043900;28;19925;-82
2024/02/04 16:15:15;;;;;;;;;;;;;;;;;;5045722;28;19994;-83
2024/02/04 16:17:41;;;;;;;;;;;;;;;;;;5047335;28;20003;-82
2024/02/04 16:20:07;;;;;;;;;;;;;;;;;;5044095;28;20007;-82
2024/02/04 16:22:33;;;;;;;;;;;;;;;;;;5038603;28;19913;-82
2024/02/04 16:24:59;;;;;;;;;;;;;;;;;;5039312;28;20294;-82
2024/02/04 16:27:24;;;;;;;;;;;;;;;;;;5047566;28;19921;-82
2024/02/04 16:29:50;;;;;;;;;;;;;;;;;;5043450;28;19924;-82
2024/02/04 16:32:16;;;;;;;;;;;;;;;;;;5044729;28;19924;-82
2024/02/04 16:34:42;;;;;;;;;;;;;;;;;;5046275;28;20422;-81
2024/02/04 16:37:11;;;;;;;;;;;;;;;;;;5047000;28;19913;-82
2024/02/04 16:39:37;;;;;;;;;;;;;;;;;;5044368;28;20413;-82
2024/02/04 16:42:03;;;;;;;;;;;;;;;;;;5035565;28;19948;-80
2024/02/04 16:44:29;;;;;;;;;;;;;;;;;;5045670;28;19956;-81
2024/02/04 16:46:57;;;;;;;;;;;;;;;;;;5042800;28;19913;-80
2024/02/04 16:49:23;;;;;;;;;;;;;;;;;;5041055;28;19921;-81
2024/02/04 16:51:49;;;;;;;;;;;;;;;;;;5043437;28;19913;-81
2024/02/04 16:54:17;;;;;;;;;;;;;;;;;;5045947;28;19966;-81
2024/02/04 16:56:45;;;;;;;;;;;;;;;;;;5049216;28;19913;-81
2024/02/04 16:59:11;;;;;;;;;;;;;;;;;;5047928;28;20003;-82
2024/02/04 17:01:37;;;;;;;;;;;;;;;;;;5044267;28;20344;-81
2024/02/04 17:04:04;;;;;;;;;;;;;;;;;;5049762;28;19912;-82
2024/02/04 17:06:30;;;;;;;;;;;;;;;;;;5051041;28;20030;-82
2024/02/04 17:08:56;;;;;;;;;;;;;;;;;;5047551;28;19978;-83
2024/02/04 17:11:24;;;;;;;;;;;;;;;;;;5046950;28;19925;-81
2024/02/04 17:13:52;;;;;;;;;;;;;;;;;;5049642;28;19952;-81
2024/02/04 17:16:18;;;;;;;;;;;;;;;;;;5048293;28;19912;-81
2024/02/04 17:18:43;;;;;;;;;;;;;;;;;;5051580;28;19988;-81